Time;durP1;ratioP1;P1;durP2;ratioP2;P2;SDS_P1;SDS_P2;PMS_P1;PMS_P2;Temp;Humidity;BMP_temperature;BMP_pressure;BME280_temperature;BME280_humidity;BME280_pressure;Samples;Min_cycle;Max_cycle;Signal;HPM_P1;HPM_P2
2023/10/16 00:00:32;;;;;;;5.53;0.85;;;8.50;99.90;;;;;;5072264;28;20455;-72
2023/10/16 00:03:01;;;;;;;4.97;1.10;;;8.50;99.90;;;;;;5055596;28;20037;-72
2023/10/16 00:05:31;;;;;;;6.97;0.75;;;8.50;99.90;;;;;;5072115;28;20148;-72
2023/10/16 00:07:57;;;;;;;6.65;1.05;;;8.50;99.90;;;;;;5072117;28;20041;-72
2023/10/16 00:10:26;;;;;;;4.10;1.00;;;8.50;99.90;;;;;;5072347;28;20150;-72
2023/10/16 00:12:52;;;;;;;4.88;0.95;;;8.60;99.90;;;;;;5072068;28;20051;-72
2023/10/16 00:15:17;;;;;;;4.03;0.80;;;8.60;99.90;;;;;;5071859;28;20037;-72
2023/10/16 00:17:43;;;;;;;2.92;0.80;;;8.60;99.90;;;;;;5071787;28;20112;-72
2023/10/16 00:20:14;;;;;;;2.90;0.63;;;8.60;99.90;;;;;;5072201;28;20130;-72
2023/10/16 00:22:43;;;;;;;5.20;1.17;;;8.50;99.90;;;;;;5072005;28;20032;-72
2023/10/16 00:25:10;;;;;;;4.57;0.70;;;8.50;99.90;;;;;;5071858;28;20522;-72
2023/10/16 00:27:37;;;;;;;3.05;0.95;;;8.60;99.90;;;;;;5071880;28;20052;-72
2023/10/16 00:30:07;;;;;;;6.90;0.80;;;8.60;99.90;;;;;;5071871;28;20044;-72
2023/10/16 00:32:36;;;;;;;7.75;1.15;;;8.50;99.90;;;;;;5071883;28;20040;-72
2023/10/16 00:35:03;;;;;;;3.58;0.80;;;8.60;99.90;;;;;;5071655;28;20130;-72
2023/10/16 00:37:31;;;;;;;4.40;0.77;;;8.50;99.90;;;;;;5072062;28;20029;-72
2023/10/16 00:39:57;;;;;;;5.00;0.90;;;8.60;99.90;;;;;;5072012;28;20037;-72
2023/10/16 00:42:23;;;;;;;5.55;0.60;;;8.60;99.90;;;;;;5077646;28;20036;-72
2023/10/16 00:44:56;;;;;;;4.55;0.73;;;8.60;99.90;;;;;;5078376;28;20052;-72
2023/10/16 00:47:21;;;;;;;5.55;1.00;;;8.60;99.90;;;;;;5078348;28;20094;-72
2023/10/16 00:49:49;;;;;;;4.47;0.80;;;8.60;99.90;;;;;;5061896;28;20037;-72
2023/10/16 00:52:15;;;;;;;4.82;0.80;;;8.60;99.90;;;;;;5078582;28;20036;-72
2023/10/16 00:54:41;;;;;;;3.78;0.70;;;8.60;99.90;;;;;;5078239;28;20037;-72
2023/10/16 00:57:10;;;;;;;4.43;0.73;;;8.60;99.90;;;;;;5078176;28;20039;-72
2023/10/16 00:59:36;;;;;;;3.67;0.90;;;8.60;99.90;;;;;;5078220;28;20382;-72
2023/10/16 01:02:13;;;;;;;4.45;0.80;;;8.60;99.90;;;;;;5061767;28;20041;-71
2023/10/16 01:04:43;;;;;;;4.05;1.30;;;8.50;99.90;;;;;;5061539;28;20040;-71
2023/10/16 01:07:14;;;;;;;4.30;0.80;;;8.50;99.90;;;;;;5078103;28;20042;-72
2023/10/16 01:09:40;;;;;;;6.25;1.23;;;8.50;99.90;;;;;;5078145;28;20119;-72
2023/10/16 01:12:06;;;;;;;3.00;0.75;;;8.40;99.90;;;;;;5078425;28;20109;-72
2023/10/16 01:14:37;;;;;;;4.47;0.88;;;8.30;99.90;;;;;;5078318;28;20498;-72
2023/10/16 01:17:04;;;;;;;4.55;0.80;;;8.30;99.90;;;;;;5078161;28;20397;-72
2023/10/16 01:19:31;;;;;;;4.05;1.35;;;8.30;99.90;;;;;;5078096;28;20485;-72
2023/10/16 01:21:58;;;;;;;3.30;0.65;;;8.30;99.90;;;;;;5078057;28;20040;-72
2023/10/16 01:24:24;;;;;;;6.28;0.90;;;8.20;99.90;;;;;;5078019;28;20044;-72
2023/10/16 01:26:50;;;;;;;7.18;0.70;;;8.30;99.90;;;;;;5077943;28;20048;-72
2023/10/16 01:29:15;;;;;;;3.97;0.82;;;8.20;99.90;;;;;;5078244;28;20068;-72
2023/10/16 01:31:44;;;;;;;5.50;0.88;;;8.30;99.90;;;;;;5077975;28;20568;-72
2023/10/16 01:34:13;;;;;;;2.75;0.80;;;8.30;99.90;;;;;;5077925;28;20036;-72
2023/10/16 01:36:45;;;;;;;4.72;1.10;;;8.40;99.90;;;;;;5078063;28;20493;-72
2023/10/16 01:39:47;;;;;;;4.25;0.80;;;8.40;99.90;;;;;;5077982;28;20044;-71
2023/10/16 01:42:01;;;;;;;4.65;0.63;;;8.40;99.90;;;;;;5078822;28;20056;-71
2023/10/16 01:44:28;;;;;;;6.35;0.95;;;8.40;99.90;;;;;;5077849;28;20041;-71
2023/10/16 01:46:56;;;;;;;3.97;0.82;;;8.40;99.90;;;;;;5077773;28;20040;-71
2023/10/16 01:49:25;;;;;;;4.60;0.98;;;8.50;99.90;;;;;;5077871;28;20036;-71
2023/10/16 01:51:51;;;;;;;3.75;0.60;;;8.40;99.90;;;;;;5077549;28;20029;-71
2023/10/16 01:54:22;;;;;;;3.83;0.60;;;8.40;99.90;;;;;;5073608;28;20043;-71
2023/10/16 01:56:49;;;;;;;5.18;0.80;;;8.40;99.90;;;;;;5074542;28;20051;-71
2023/10/16 01:59:15;;;;;;;3.80;0.60;;;8.40;99.90;;;;;;5074531;28;20071;-71
2023/10/16 02:01:41;;;;;;;3.92;0.57;;;8.40;99.90;;;;;;5074491;28;20068;-71
2023/10/16 02:04:06;;;;;;;2.65;0.57;;;8.40;99.90;;;;;;5074663;28;20079;-71
2023/10/16 02:06:32;;;;;;;2.63;0.63;;;8.40;99.90;;;;;;5074350;28;20037;-71
2023/10/16 02:08:59;;;;;;;3.83;0.80;;;8.40;99.90;;;;;;5074643;28;20040;-71
2023/10/16 02:11:25;;;;;;;7.35;1.00;;;8.40;99.90;;;;;;5074559;28;20055;-71
2023/10/16 02:13:51;;;;;;;6.40;0.60;;;8.40;99.90;;;;;;5074304;28;20044;-71
2023/10/16 02:16:18;;;;;;;2.35;0.73;;;8.40;99.90;;;;;;5074094;28;20040;-71
2023/10/16 02:18:47;;;;;;;4.30;0.65;;;8.40;99.90;;;;;;5074052;28;20122;-71
2023/10/16 02:21:14;;;;;;;4.28;0.80;;;8.30;99.90;;;;;;5074107;28;20033;-71
2023/10/16 02:23:43;;;;;;;2.45;0.50;;;8.30;99.90;;;;;;5074064;28;20068;-72
2023/10/16 02:26:09;;;;;;;4.82;0.95;;;8.30;99.90;;;;;;5074616;28;20053;-72
2023/10/16 02:28:44;;;;;;;4.82;0.80;;;8.40;99.90;;;;;;5073967;28;20527;-72
2023/10/16 02:31:14;;;;;;;2.20;0.40;;;8.40;99.90;;;;;;5074010;28;20042;-71
2023/10/16 02:33:46;;;;;;;1.35;0.40;;;8.40;99.90;;;;;;5073921;28;20044;-71
2023/10/16 02:36:15;;;;;;;2.03;0.40;;;8.50;99.90;;;;;;5073764;28;20048;-72
2023/10/16 02:38:42;;;;;;;3.53;0.60;;;8.50;99.90;;;;;;5073824;28;20037;-72
2023/10/16 02:41:08;;;;;;;4.80;0.70;;;8.50;99.90;;;;;;5073784;28;20059;-72
2023/10/16 02:43:37;;;;;;;1.77;0.43;;;8.40;99.90;;;;;;5073727;28;20068;-72
2023/10/16 02:46:04;;;;;;;2.67;0.55;;;8.40;99.90;;;;;;5073627;28;20051;-72
2023/10/16 02:48:30;;;;;;;2.58;0.60;;;8.40;99.90;;;;;;5073570;28;20051;-72
2023/10/16 02:50:59;;;;;;;2.88;0.77;;;8.40;99.90;;;;;;5073576;28;20133;-72
2023/10/16 02:53:29;;;;;;;4.88;0.60;;;8.30;99.90;;;;;;5074367;28;20040;-72
2023/10/16 02:56:04;;;;;;;3.20;0.65;;;8.30;99.90;;;;;;5073395;28;20063;-72
2023/10/16 02:58:30;;;;;;;1.67;0.57;;;8.30;99.90;;;;;;5073496;28;20115;-71
2023/10/16 03:00:58;;;;;;;4.47;0.60;;;8.30;99.90;;;;;;5073320;28;20127;-71
2023/10/16 03:03:26;;;;;;;4.68;0.75;;;8.30;99.90;;;;;;5056405;28;20119;-72
2023/10/16 03:05:55;;;;;;;5.15;0.90;;;8.20;99.90;;;;;;5073334;28;20048;-72
2023/10/16 03:08:29;;;;;;;6.00;1.30;;;8.20;99.90;;;;;;5073180;28;20044;-72
2023/10/16 03:11:06;;;;;;;5.90;1.60;;;8.20;99.90;;;;;;5073267;28;20055;-72
2023/10/16 03:13:36;;;;;;;2.28;0.73;;;8.20;99.90;;;;;;5073142;28;20048;-72
2023/10/16 03:16:07;;;;;;;4.80;1.40;;;8.10;99.90;;;;;;5073320;28;20041;-72
2023/10/16 03:18:34;;;;;;;4.43;1.20;;;8.10;99.90;;;;;;5056262;28;20040;-72
2023/10/16 03:23:44;;;;;;;3.40;1.40;;;8.10;99.90;;;;;;5072931;28;20041;-71
2023/10/16 03:26:28;;;;;;;7.40;2.10;;;8.20;99.90;;;;;;5072745;28;20082;-72
2023/10/16 03:28:59;;;;;;;5.72;1.55;;;8.20;99.90;;;;;;5072856;28;20093;-72
2023/10/16 03:31:27;;;;;;;4.82;1.25;;;8.20;99.90;;;;;;5056131;28;20040;-72
2023/10/16 03:33:54;;;;;;;5.25;1.30;;;8.30;99.90;;;;;;5072675;28;20056;-72
2023/10/16 03:36:21;;;;;;;6.57;1.83;;;8.30;99.90;;;;;;5072433;28;20047;-72
2023/10/16 03:38:49;;;;;;;3.22;1.30;;;8.40;99.90;;;;;;5072837;28;20037;-72
2023/10/16 03:43:56;;;;;;;3.35;1.02;;;8.30;99.90;;;;;;5072470;28;20505;-72
2023/10/16 03:46:28;;;;;;;5.25;1.42;;;8.40;99.90;;;;;;5072509;28;20086;-72
2023/10/16 03:48:57;;;;;;;6.32;1.52;;;8.40;99.90;;;;;;5056052;28;20037;-72
2023/10/16 03:51:24;;;;;;;4.38;1.30;;;8.40;99.90;;;;;;5072424;28;20033;-72
2023/10/16 03:53:52;;;;;;;4.75;1.40;;;8.40;99.90;;;;;;5072356;28;20041;-72
2023/10/16 03:56:18;;;;;;;2.95;1.00;;;8.40;99.90;;;;;;5072322;28;20044;-72
2023/10/16 03:58:44;;;;;;;6.50;1.42;;;8.50;99.90;;;;;;5055935;28;20149;-72
2023/10/16 04:01:13;;;;;;;4.10;1.17;;;8.50;99.90;;;;;;5072279;28;20509;-71
2023/10/16 04:03:46;;;;;;;4.32;1.00;;;8.50;99.90;;;;;;5072200;28;20043;-71
2023/10/16 04:06:21;;;;;;;;;;;8.50;99.90;;;;;;5072568;28;20044;-71
2023/10/16 04:08:48;;;;;;;3.10;1.08;;;8.40;99.90;;;;;;5072537;28;19916;-71
2023/10/16 04:11:17;;;;;;;4.88;1.10;;;8.40;99.90;;;;;;5072313;28;20071;-71
2023/10/16 04:13:49;;;;;;;3.83;1.00;;;8.40;99.90;;;;;;5072088;28;20123;-71
2023/10/16 04:16:42;;;;;;;3.88;0.80;;;8.50;99.90;;;;;;5071309;28;20043;-71
2023/10/16 04:21:45;;;;;;;4.80;0.90;;;8.50;99.90;;;;;;5072278;28;20040;-71
2023/10/16 04:24:44;;;;;;;2.40;0.80;;;8.50;99.90;;;;;;5072161;28;20512;-72
2023/10/16 04:29:45;;;;;;;5.35;1.10;;;8.50;99.90;;;;;;5071839;28;20287;-72
2023/10/16 04:32:40;;;;;;;4.60;0.80;;;8.50;99.90;;;;;;5072744;28;20491;-72
2023/10/16 04:37:55;;;;;;;6.10;1.55;;;8.50;99.90;;;;;;5071796;28;20037;-71
2023/10/16 04:42:02;;;;;;;3.53;0.80;;;8.50;99.90;;;;;;5071822;28;20165;-72
2023/10/16 04:43:19;;;;;;;3.22;0.63;;;8.50;99.90;;;;;;5071579;28;20044;-72
2023/10/16 04:46:07;;;;;;;3.63;0.80;;;8.50;99.90;;;;;;5071673;28;20527;-72
2023/10/16 04:48:48;;;;;;;3.25;0.95;;;8.50;99.90;;;;;;5071746;28;20078;-72
2023/10/16 04:51:36;;;;;;;4.43;1.00;;;8.50;99.90;;;;;;5071697;28;20044;-72
2023/10/16 04:54:22;;;;;;;2.85;1.02;;;8.50;99.90;;;;;;5071718;28;20421;-72
2023/10/16 04:57:37;;;;;;;4.03;1.17;;;8.50;99.90;;;;;;5071571;28;20052;-72
2023/10/16 05:00:12;;;;;;;5.82;0.95;;;8.60;99.90;;;;;;5071759;28;20037;-72
2023/10/16 05:02:41;;;;;;;4.20;1.10;;;8.50;99.90;;;;;;5071903;28;20378;-72
2023/10/16 05:08:29;;;;;;;3.70;0.82;;;8.60;99.90;;;;;;5071560;28;20048;-72
2023/10/16 05:10:51;;;;;;;3.70;1.10;;;8.60;99.90;;;;;;5071291;28;20501;-72
2023/10/16 05:13:22;;;;;;;3.88;1.15;;;8.60;99.90;;;;;;5071764;28;20044;-72
2023/10/16 05:18:46;;;;;;;7.55;1.20;;;8.60;99.90;;;;;;5071347;28;20040;-72
2023/10/16 05:21:51;;;;;;;5.07;0.95;;;8.60;99.90;;;;;;5071711;28;20032;-72
2023/10/16 06:16:04;;;;;;;4.50;1.58;;;8.70;99.90;;;;;;5074261;28;20086;-71
2023/10/16 06:18:30;;;;;;;6.20;1.80;;;8.60;99.90;;;;;;5074349;28;20471;-72
2023/10/16 06:21:00;;;;;;;5.05;1.67;;;8.70;99.90;;;;;;5057510;28;20032;-72
2023/10/16 06:23:28;;;;;;;7.68;1.35;;;8.70;99.90;;;;;;5074447;28;20041;-72
2023/10/16 06:25:54;;;;;;;5.30;1.55;;;8.70;99.90;;;;;;5074000;28;20454;-72
2023/10/16 06:28:21;;;;;;;7.40;1.88;;;8.80;99.90;;;;;;5074017;28;20056;-72
2023/10/16 06:30:47;;;;;;;6.28;1.70;;;8.80;99.90;;;;;;5073917;28;20519;-72
2023/10/16 06:33:14;;;;;;;4.10;1.55;;;8.80;99.90;;;;;;5073984;28;20075;-71
2023/10/16 06:35:41;;;;;;;5.50;1.58;;;8.90;99.90;;;;;;5073718;28;20464;-71
2023/10/16 06:38:11;;;;;;;5.22;1.50;;;8.90;99.90;;;;;;5073924;28;20040;-71
2023/10/16 06:40:40;;;;;;;6.97;1.63;;;8.90;99.90;;;;;;5073354;28;20079;-71
2023/10/16 06:43:16;;;;;;;4.15;1.70;;;9.00;99.90;;;;;;5073746;28;20586;-71
2023/10/16 06:45:54;;;;;;;11.00;2.03;;;9.00;99.90;;;;;;5073926;28;20149;-71
2023/10/16 06:48:19;;;;;;;5.97;1.58;;;9.00;99.90;;;;;;5073905;28;20485;-71
2023/10/16 06:50:53;;;;;;;4.50;1.40;;;9.00;99.90;;;;;;5074161;28;20138;-71
2023/10/16 06:53:18;;;;;;;5.57;1.60;;;9.10;99.90;;;;;;5056968;28;20044;-71
2023/10/16 06:55:45;;;;;;;5.30;1.77;;;9.10;99.90;;;;;;5073353;28;20056;-71
2023/10/16 06:58:12;;;;;;;4.65;1.67;;;9.10;99.90;;;;;;5073684;28;20041;-71
2023/10/16 07:00:40;;;;;;;4.43;1.55;;;9.20;99.90;;;;;;5073429;28;20040;-71
2023/10/16 07:03:12;;;;;;;8.50;1.80;;;9.20;99.90;;;;;;5073344;28;20071;-71
2023/10/16 07:05:44;;;;;;;4.82;1.35;;;9.20;99.90;;;;;;5073544;28;20045;-72
2023/10/16 07:08:10;;;;;;;6.22;1.52;;;9.30;99.90;;;;;;5073262;28;20044;-72
2023/10/16 07:10:42;;;;;;;6.32;1.58;;;9.30;99.90;;;;;;5073437;28;20533;-72
2023/10/16 07:13:11;;;;;;;4.90;1.80;;;9.30;99.90;;;;;;5073376;28;20413;-72
2023/10/16 07:15:36;;;;;;;6.13;1.58;;;9.40;99.90;;;;;;5072966;28;20040;-72
2023/10/16 07:18:05;;;;;;;4.55;1.90;;;9.40;99.90;;;;;;5073174;28;20048;-72
2023/10/16 07:20:33;;;;;;;5.80;1.67;;;9.40;99.90;;;;;;5073290;28;20058;-72
2023/10/16 07:23:00;;;;;;;6.05;1.77;;;9.40;99.90;;;;;;5073376;28;20048;-72
2023/10/16 07:25:37;;;;;;;6.13;1.80;;;9.40;99.90;;;;;;5073558;28;20072;-71
2023/10/16 07:28:08;;;;;;;3.78;1.48;;;9.50;99.90;;;;;;5073119;28;20049;-71
2023/10/16 07:30:35;;;;;;;5.88;1.60;;;9.40;99.90;;;;;;5056219;28;20036;-72
2023/10/16 07:33:01;;;;;;;6.70;1.80;;;9.50;99.90;;;;;;5072791;28;20501;-72
2023/10/16 07:35:27;;;;;;;5.35;1.50;;;9.50;99.90;;;;;;5072583;28;20040;-72
2023/10/16 07:37:55;;;;;;;5.35;1.77;;;9.60;99.90;;;;;;5072733;28;20190;-72
2023/10/16 07:40:25;;;;;;;7.57;1.88;;;9.60;99.90;;;;;;5072608;28;20037;-72
2023/10/16 07:42:52;;;;;;;5.03;1.63;;;9.60;99.90;;;;;;5072822;28;20051;-72
2023/10/16 07:45:19;;;;;;;5.22;1.60;;;9.70;99.90;;;;;;5072448;28;20044;-72
2023/10/16 07:47:48;;;;;;;7.93;1.60;;;9.70;99.90;;;;;;5072468;28;20047;-71
2023/10/16 07:50:15;;;;;;;3.67;1.38;;;9.80;99.90;;;;;;5072126;28;20060;-71
2023/10/16 07:52:42;;;;;;;4.70;1.58;;;9.80;99.90;;;;;;5055815;28;20148;-71
2023/10/16 07:55:17;;;;;;;6.10;1.85;;;9.90;99.90;;;;;;5072156;28;20558;-71
2023/10/16 07:57:44;;;;;;;4.82;1.25;;;9.90;99.90;;;;;;5072347;28;20044;-71
2023/10/16 08:00:14;;;;;;;6.57;1.77;;;9.90;99.90;;;;;;5072270;28;20048;-71
2023/10/16 08:02:44;;;;;;;5.25;1.80;;;10.00;99.90;;;;;;5072254;28;20485;-71
2023/10/16 08:05:15;;;;;;;4.55;1.48;;;10.00;99.90;;;;;;5072167;28;20051;-71
2023/10/16 08:07:47;;;;;;;7.93;1.45;;;10.10;99.90;;;;;;5072264;28;20511;-71
2023/10/16 08:10:40;;;;;;;7.95;2.03;;;10.10;99.90;;;;;;5072185;28;20040;-71
2023/10/16 08:13:12;;;;;;;;;;;10.20;99.90;;;;;;5072544;28;20044;-71
2023/10/16 08:15:48;;;;;;;7.28;1.55;;;10.20;99.90;;;;;;5071991;28;20003;-71
2023/10/16 08:18:14;;;;;;;7.32;1.63;;;10.30;99.90;;;;;;5072243;28;20124;-70
2023/10/16 08:20:49;;;;;;;6.32;1.20;;;10.40;99.90;;;;;;5072102;28;20124;-70
2023/10/16 08:23:15;;;;;;;5.25;1.50;;;10.50;99.90;;;;;;5072130;28;20068;-70
2023/10/16 08:25:41;;;;;;;3.00;1.20;;;10.70;99.90;;;;;;5071891;28;20040;-71
2023/10/16 08:28:35;;;;;;;7.63;1.45;;;10.80;99.90;;;;;;5071932;28;20412;-71
2023/10/16 08:31:10;;;;;;;5.68;1.60;;;10.90;99.90;;;;;;5072171;28;20489;-71
2023/10/16 08:33:36;;;;;;;6.55;1.20;;;11.30;99.90;;;;;;5072596;28;20044;-71
2023/10/16 08:36:04;;;;;;;4.47;1.17;;;12.10;99.90;;;;;;5071614;28;20107;-71
2023/10/16 08:38:33;;;;;;;5.25;0.90;;;12.90;99.90;;;;;;5072045;28;20040;-71
2023/10/16 08:41:07;;;;;;;6.68;1.02;;;13.50;99.90;;;;;;5072001;28;20040;-71
2023/10/16 08:46:34;;;;;;;7.35;1.00;;;14.70;99.90;;;;;;5071700;28;20083;-71
2023/10/16 08:49:01;;;;;;;4.72;0.80;;;14.80;99.90;;;;;;5071710;28;20040;-70
2023/10/16 08:51:30;;;;;;;6.93;0.93;;;14.40;99.90;;;;;;5055009;28;20080;-70
2023/10/16 08:54:01;;;;;;;4.38;0.90;;;14.20;99.90;;;;;;5071684;28;20128;-70
2023/10/16 08:56:26;;;;;;;3.70;0.88;;;13.90;99.90;;;;;;5071588;28;20045;-71
2023/10/16 08:58:55;;;;;;;11.15;2.10;;;13.60;99.90;;;;;;5071901;28;20055;-71
2023/10/16 09:01:23;;;;;;;3.78;1.00;;;13.40;99.90;;;;;;5071620;28;20036;-71
2023/10/16 09:03:59;;;;;;;6.70;1.20;;;13.20;99.90;;;;;;5075379;28;20032;-71
2023/10/16 09:06:25;;;;;;;5.53;1.17;;;13.00;99.90;;;;;;5075532;28;20118;-71
2023/10/16 09:08:52;;;;;;;7.50;1.20;;;12.80;99.90;;;;;;5075503;28;20123;-71
2023/10/16 09:11:19;;;;;;;4.30;1.00;;;12.60;99.90;;;;;;5075467;28;20080;-71
2023/10/16 09:13:54;;;;;;;5.38;1.08;;;12.40;99.90;;;;;;5075438;28;20093;-71
2023/10/16 09:16:21;;;;;;;7.05;1.05;;;12.20;99.90;;;;;;5058623;28;20036;-71
2023/10/16 09:18:53;;;;;;;7.20;1.00;;;12.10;99.90;;;;;;5075436;28;20048;-71
2023/10/16 09:21:23;;;;;;;8.45;1.23;;;12.00;99.90;;;;;;5075338;28;20040;-71
2023/10/16 09:23:51;;;;;;;4.60;1.10;;;12.00;99.90;;;;;;5075543;28;20083;-70
2023/10/16 09:26:24;;;;;;;3.47;0.80;;;12.00;99.90;;;;;;5058703;28;20040;-70
2023/10/16 09:28:53;;;;;;;8.20;1.25;;;12.00;99.90;;;;;;5075429;28;20052;-70
2023/10/16 09:31:20;;;;;;;6.20;1.33;;;12.00;99.90;;;;;;5075370;28;20075;-70
2023/10/16 09:33:49;;;;;;;8.77;1.88;;;12.00;99.90;;;;;;5075058;28;20072;-70
2023/10/16 09:36:18;;;;;;;7.63;1.30;;;12.10;99.90;;;;;;5074946;28;20047;-70
2023/10/16 09:38:51;;;;;;;5.88;1.17;;;12.20;99.90;;;;;;5075206;28;20044;-70
2023/10/16 09:41:38;;;;;;;6.28;1.10;;;12.40;99.90;;;;;;5074972;28;20048;-70
2023/10/16 09:44:23;;;;;;;6.22;1.15;;;12.60;99.90;;;;;;5075173;28;20046;-70
2023/10/16 09:46:53;;;;;;;6.53;1.65;;;13.30;99.90;;;;;;5058568;28;20044;-70
2023/10/16 09:49:23;;;;;;;6.28;1.45;;;14.00;99.90;;;;;;5074975;28;20103;-71
2023/10/16 09:52:03;;;;;;;6.85;1.20;;;14.40;99.90;;;;;;5074971;28;20440;-70
2023/10/16 09:54:30;;;;;;;5.70;1.20;;;14.80;99.90;;;;;;5074691;28;20068;-70
2023/10/16 09:57:00;;;;;;;5.97;1.05;;;15.30;99.90;;;;;;5074568;28;20040;-70
2023/10/16 09:59:39;;;;;;;8.13;1.40;;;15.70;99.90;;;;;;5074582;28;20037;-71
2023/10/16 10:02:08;;;;;;;6.20;1.10;;;16.10;99.90;;;;;;5074740;28;20071;-71
2023/10/16 10:04:43;;;;;;;7.07;1.10;;;16.50;99.90;;;;;;5074530;28;20051;-71
2023/10/16 10:07:18;;;;;;;33.67;2.58;;;16.60;99.90;;;;;;5074429;28;20133;-70
2023/10/16 10:09:47;;;;;;;6.85;0.90;;;16.20;99.90;;;;;;5074497;28;20039;-71
2023/10/16 10:12:47;;;;;;;7.22;1.50;;;15.80;99.90;;;;;;5074348;28;20082;-71
2023/10/16 10:15:26;;;;;;;7.22;1.40;;;15.40;99.90;;;;;;5071771;28;20052;-71
2023/10/16 10:17:55;;;;;;;8.32;1.30;;;14.90;99.90;;;;;;5074205;28;20040;-71
2023/10/16 10:20:31;;;;;;;3.67;1.00;;;14.60;99.90;;;;;;5074163;28;20040;-71
2023/10/16 10:23:08;;;;;;;6.45;1.00;;;14.30;99.90;;;;;;5074171;28;20048;-71
2023/10/16 10:25:36;;;;;;;8.05;1.27;;;14.00;99.90;;;;;;5074570;28;20048;-71
2023/10/16 10:28:09;;;;;;;5.78;1.58;;;13.80;99.90;;;;;;5074058;28;20040;-71
2023/10/16 10:30:40;;;;;;;7.43;1.40;;;13.60;99.90;;;;;;5074162;28;20043;-71
2023/10/16 10:33:06;;;;;;;8.40;1.02;;;13.50;99.90;;;;;;5057351;28;20047;-71
2023/10/16 10:35:43;;;;;;;7.95;1.27;;;13.40;99.90;;;;;;5073875;28;20083;-72
2023/10/16 10:38:23;;;;;;;7.32;1.15;;;13.30;99.90;;;;;;5073896;28;20459;-71
2023/10/16 10:41:10;;;;;;;7.88;1.30;;;13.40;99.90;;;;;;5073862;28;20124;-71
2023/10/16 10:43:46;;;;;;;2.72;0.88;;;13.40;99.90;;;;;;5073809;28;20082;-71
2023/10/16 10:46:13;;;;;;;5.88;1.05;;;13.50;99.90;;;;;;5073732;28;20044;-71
2023/10/16 10:48:41;;;;;;;7.13;1.50;;;13.70;99.90;;;;;;5073641;28;20044;-72
2023/10/16 10:51:13;;;;;;;7.70;1.50;;;14.00;99.90;;;;;;5073642;28;20044;-72
2023/10/16 10:53:54;;;;;;;4.50;1.23;;;14.60;99.90;;;;;;5073899;28;20044;-71
2023/10/16 10:56:20;;;;;;;7.07;1.15;;;15.20;99.90;;;;;;5073444;28;20305;-72
2023/10/16 10:58:47;;;;;;;5.38;1.00;;;15.70;99.90;;;;;;5073463;28;20040;-72
2023/10/16 11:01:16;;;;;;;5.05;1.13;;;15.60;99.90;;;;;;5073542;28;20043;-72
2023/10/16 11:03:45;;;;;;;6.85;1.25;;;15.50;99.90;;;;;;5073441;28;20036;-71
2023/10/16 11:06:18;;;;;;;5.75;1.05;;;15.40;99.90;;;;;;5073260;28;20045;-71
2023/10/16 11:08:47;;;;;;;4.60;1.00;;;15.50;99.90;;;;;;5073280;28;20037;-72
2023/10/16 11:11:14;;;;;;;5.50;1.20;;;15.40;99.90;;;;;;5073236;28;20094;-72
2023/10/16 11:13:47;;;;;;;5.18;1.15;;;15.20;99.90;;;;;;5073174;28;20497;-72
2023/10/16 11:16:14;;;;;;;6.68;1.23;;;15.20;99.90;;;;;;5072976;28;20040;-71
2023/10/16 11:18:43;;;;;;;4.72;1.30;;;15.40;99.90;;;;;;5073036;28;20037;-72
2023/10/16 11:21:09;;;;;;;6.22;1.42;;;15.50;99.90;;;;;;5073019;28;20497;-71
2023/10/16 11:23:40;;;;;;;6.13;1.08;;;15.40;99.90;;;;;;5073009;28;20040;-72
2023/10/16 11:26:06;;;;;;;7.88;1.23;;;15.30;99.90;;;;;;5072662;28;20048;-71
2023/10/16 11:28:32;;;;;;;4.70;1.08;;;15.30;99.90;;;;;;5073125;28;20045;-71
2023/10/16 11:31:00;;;;;;;5.43;0.98;;;15.50;99.90;;;;;;5072835;28;20393;-71
2023/10/16 11:34:00;;;;;;;6.78;1.05;;;15.70;99.90;;;;;;5073096;28;20044;-71
2023/10/16 11:36:34;;;;;;;8.68;1.10;;;15.90;99.90;;;;;;5072577;28;20535;-71
2023/10/16 11:39:06;;;;;;;4.75;0.90;;;16.00;99.90;;;;;;5072739;28;20072;-71
2023/10/16 11:41:32;;;;;;;5.40;1.08;;;16.10;99.90;;;;;;5072660;28;20408;-72
2023/10/16 11:44:01;;;;;;;5.82;0.90;;;16.20;99.90;;;;;;5055900;28;20093;-72
2023/10/16 11:46:29;;;;;;;5.00;0.80;;;16.10;99.90;;;;;;5072728;28;20094;-72
2023/10/16 11:51:47;;;;;;;5.28;0.80;;;16.10;99.90;;;;;;5072749;28;20486;-71
2023/10/16 11:54:21;;;;;;;4.72;0.80;;;16.10;99.90;;;;;;5072438;28;20533;-72
2023/10/16 11:56:54;;;;;;;4.00;0.80;;;16.10;99.90;;;;;;5072266;28;20044;-71
2023/10/16 11:59:21;;;;;;;6.13;0.93;;;16.00;99.90;;;;;;5072398;28;20045;-71
2023/10/16 12:01:51;;;;;;;5.47;0.82;;;16.00;99.90;;;;;;5072537;28;20044;-71
2023/10/16 12:04:17;;;;;;;6.30;1.23;;;15.90;99.90;;;;;;5072312;28;20515;-72
2023/10/16 12:06:44;;;;;;;6.78;1.13;;;15.80;99.90;;;;;;5072145;28;20079;-72
2023/10/16 12:09:13;;;;;;;8.85;1.20;;;15.70;99.90;;;;;;5072192;28;20051;-72
2023/10/16 12:11:44;;;;;;;9.18;1.25;;;15.70;99.90;;;;;;5072472;28;20083;-72
2023/10/16 12:14:13;;;;;;;6.53;1.17;;;15.70;99.90;;;;;;5072390;28;20051;-72
2023/10/16 12:16:45;;;;;;;3.97;0.80;;;15.60;99.90;;;;;;5071919;28;20056;-72
2023/10/16 12:19:12;;;;;;;4.50;0.82;;;15.40;99.90;;;;;;5055309;28;20524;-72
2023/10/16 12:21:38;;;;;;;5.20;1.75;;;15.30;99.90;;;;;;5072024;28;20088;-72
2023/10/16 12:24:04;;;;;;;3.22;0.90;;;15.20;99.90;;;;;;5071959;28;20119;-72
2023/10/16 12:26:31;;;;;;;4.45;0.80;;;15.20;99.90;;;;;;5071961;28;20051;-71
2023/10/16 12:28:59;;;;;;;5.25;0.82;;;15.10;99.90;;;;;;5071939;28;20044;-71
2023/10/16 12:31:26;;;;;;;4.35;0.93;;;15.10;99.90;;;;;;5072039;28;20048;-71
2023/10/16 12:33:52;;;;;;;5.55;1.08;;;15.20;99.90;;;;;;5071847;28;20055;-71
2023/10/16 12:36:18;;;;;;;5.20;1.00;;;15.10;99.90;;;;;;5071345;28;20115;-71
2023/10/16 12:38:44;;;;;;;6.55;1.17;;;15.00;99.90;;;;;;5072972;28;20040;-71
2023/10/16 12:41:10;;;;;;;5.38;1.02;;;15.00;99.90;;;;;;5071798;28;20051;-71
2023/10/16 12:43:36;;;;;;;5.10;1.05;;;14.90;99.90;;;;;;5054982;28;20115;-71
2023/10/16 12:46:03;;;;;;;6.63;1.42;;;14.90;99.90;;;;;;5071948;28;20044;-72
2023/10/16 12:48:29;;;;;;;6.05;1.23;;;14.90;99.90;;;;;;5071771;28;20040;-72
2023/10/16 12:51:00;;;;;;;5.72;0.90;;;14.90;99.90;;;;;;5071697;28;20040;-71
2023/10/16 12:53:29;;;;;;;5.03;1.30;;;14.90;99.90;;;;;;5071871;28;20047;-71
2023/10/16 12:55:55;;;;;;;5.00;1.13;;;14.90;99.90;;;;;;5054889;28;20128;-71
2023/10/16 12:58:27;;;;;;;5.10;1.20;;;14.90;99.90;;;;;;5055076;28;20036;-71
2023/10/16 13:00:52;;;;;;;4.80;0.90;;;14.80;99.90;;;;;;5071723;28;20037;-72
2023/10/16 13:03:20;;;;;;;3.03;0.75;;;14.80;99.90;;;;;;5071653;28;20101;-71
2023/10/16 13:05:48;;;;;;;5.45;1.13;;;14.90;99.90;;;;;;5071513;28;20048;-71
2023/10/16 13:08:14;;;;;;;6.25;0.77;;;14.90;99.90;;;;;;5071604;28;20055;-71
2023/10/16 13:10:39;;;;;;;3.72;0.73;;;14.90;99.90;;;;;;5071498;28;20040;-71
2023/10/16 13:13:05;;;;;;;6.65;1.20;;;14.90;99.90;;;;;;5071548;28;20040;-71
2023/10/16 13:15:31;;;;;;;4.20;0.80;;;14.90;99.90;;;;;;5071618;28;20122;-71
2023/10/16 13:18:01;;;;;;;4.10;1.05;;;15.00;99.90;;;;;;5072617;28;20497;-71
2023/10/16 13:20:29;;;;;;;5.70;1.13;;;14.90;99.90;;;;;;5071459;28;20497;-71
2023/10/16 13:22:57;;;;;;;4.10;0.70;;;14.90;99.90;;;;;;5071462;28;20114;-71
2023/10/16 13:25:25;;;;;;;4.47;0.95;;;15.00;99.90;;;;;;5071612;28;20119;-71
2023/10/16 13:27:52;;;;;;;6.43;1.10;;;14.90;99.90;;;;;;5071350;28;20412;-71
2023/10/16 13:30:22;;;;;;;2.47;0.63;;;14.90;99.90;;;;;;5071584;28;20109;-71
2023/10/16 13:32:48;;;;;;;5.72;1.02;;;15.00;99.90;;;;;;5071298;28;20105;-72
2023/10/16 13:35:18;;;;;;;4.60;1.05;;;15.00;99.90;;;;;;5071178;28;20051;-72
2023/10/16 13:37:50;;;;;;;5.55;1.23;;;14.90;99.90;;;;;;5071204;28;20386;-71
2023/10/16 13:40:21;;;;;;;6.05;0.77;;;14.90;99.90;;;;;;5071304;28;20040;-73
2023/10/16 13:43:00;;;;;;;4.28;1.05;;;14.90;99.90;;;;;;5071569;28;20123;-71
2023/10/16 13:45:27;;;;;;;5.47;1.00;;;15.00;99.90;;;;;;5071189;28;20119;-71
2023/10/16 13:47:54;;;;;;;3.97;1.17;;;14.90;99.90;;;;;;5072229;28;20102;-72
2023/10/16 13:50:24;;;;;;;4.85;0.88;;;14.90;99.90;;;;;;5074775;28;20401;-71
2023/10/16 13:52:51;;;;;;;4.47;0.98;;;15.00;99.90;;;;;;5074846;28;20493;-71
2023/10/16 13:55:20;;;;;;;7.60;1.10;;;15.00;99.90;;;;;;5074572;28;20101;-72
2023/10/16 13:57:47;;;;;;;5.13;1.08;;;14.90;99.90;;;;;;5074905;28;20139;-72
2023/10/16 14:00:29;;;;;;;4.13;0.80;;;14.90;99.90;;;;;;5075012;28;20036;-71
2023/10/16 14:05:50;;;;;;;5.85;1.10;;;14.90;99.90;;;;;;5074686;28;20083;-72
2023/10/16 14:08:18;;;;;;;8.65;1.30;;;14.80;99.90;;;;;;5074530;28;20032;-71
2023/10/16 14:10:49;;;;;;;4.70;0.95;;;14.70;99.90;;;;;;5074400;28;20040;-71
2023/10/16 14:13:28;;;;;;;5.03;1.25;;;14.70;99.90;;;;;;5074667;28;20045;-71
2023/10/16 14:16:11;;;;;;;8.38;1.33;;;14.70;99.90;;;;;;5074349;28;20045;-71
2023/10/16 14:18:42;;;;;;;7.85;1.20;;;14.60;99.90;;;;;;5074491;28;20489;-72
2023/10/16 14:21:08;;;;;;;6.10;1.30;;;14.70;99.90;;;;;;5074304;28;20051;-71
2023/10/16 14:23:35;;;;;;;6.68;1.48;;;14.60;99.90;;;;;;5074153;28;20041;-71
2023/10/16 14:26:00;;;;;;;7.15;1.20;;;14.60;99.90;;;;;;5074051;28;20098;-71
2023/10/16 14:28:41;;;;;;;5.63;1.27;;;14.50;99.90;;;;;;5074121;28;20040;-72